Time;durP1;ratioP1;P1;durP2;ratioP2;P2;SDS_P1;SDS_P2;PMS_P1;PMS_P2;Temp;Humidity;BMP_temperature;BMP_pressure;BME280_temperature;BME280_humidity;BME280_pressure;Samples;Min_cycle;Max_cycle;Signal;HPM_P1;HPM_P2
2022/11/25 00:01:22;;;;;;;11.93;6.03;;;3.00;99.90;;;;;;5080941;28;20203;-82
2022/11/25 00:03:50;;;;;;;12.10;6.37;;;3.00;99.90;;;;;;5076041;28;20230;-81
2022/11/25 00:06:18;;;;;;;12.30;5.70;;;2.90;99.90;;;;;;5089939;28;20210;-81
2022/11/25 00:08:48;;;;;;;15.50;7.73;;;2.80;99.90;;;;;;5080260;28;20575;-81
2022/11/25 00:11:17;;;;;;;15.03;7.60;;;2.70;99.90;;;;;;5082747;28;20207;-81
2022/11/25 00:13:46;;;;;;;14.37;6.90;;;2.40;99.90;;;;;;5073091;28;20203;-81
2022/11/25 00:16:14;;;;;;;11.10;5.33;;;2.50;99.90;;;;;;5082330;28;20223;-81
2022/11/25 00:18:45;;;;;;;14.20;6.80;;;2.60;99.90;;;;;;5073306;28;20688;-81
2022/11/25 00:21:13;;;;;;;12.10;5.73;;;2.60;99.90;;;;;;5085264;28;20195;-81
2022/11/25 00:23:40;;;;;;;9.90;6.03;;;2.70;99.90;;;;;;5079988;28;20233;-81
2022/11/25 00:26:09;;;;;;;14.20;5.40;;;2.70;99.90;;;;;;5071834;28;20708;-81
2022/11/25 00:28:38;;;;;;;10.97;5.00;;;2.70;99.90;;;;;;5079043;28;20222;-81
2022/11/25 00:31:10;;;;;;;12.43;4.37;;;2.70;99.90;;;;;;5082620;28;20203;-82
2022/11/25 00:33:37;;;;;;;10.67;4.90;;;2.70;99.90;;;;;;5071190;28;20203;-82
2022/11/25 00:36:06;;;;;;;6.80;4.27;;;3.20;99.90;;;;;;5083269;28;20736;-81
2022/11/25 00:38:33;;;;;;;11.47;5.33;;;2.80;99.90;;;;;;5079536;28;20221;-81
2022/11/25 00:46:30;;;;;;;9.50;4.00;;;2.80;99.90;;;;;;5076371;28;20254;-81
2022/11/25 00:48:57;;;;;;;8.30;4.63;;;2.90;99.90;;;;;;5069157;28;20221;-80
2022/11/25 00:51:24;;;;;;;7.97;4.30;;;2.70;99.90;;;;;;5068252;28;20205;-81
2022/11/25 00:53:50;;;;;;;7.20;3.93;;;2.90;99.90;;;;;;5082548;28;20203;-80
2022/11/25 00:56:17;;;;;;;9.87;5.47;;;2.80;99.90;;;;;;5080832;28;20289;-80
2022/11/25 00:58:46;;;;;;;7.83;3.10;;;3.00;99.90;;;;;;5069306;28;20721;-80
2022/11/25 01:01:13;;;;;;;6.57;3.50;;;3.10;99.90;;;;;;5082546;28;20206;-81
2022/11/25 01:03:39;;;;;;;8.70;3.73;;;3.10;99.90;;;;;;5075485;28;20214;-81
2022/11/25 01:06:09;;;;;;;10.63;3.83;;;3.10;99.90;;;;;;5063598;28;20202;-81
2022/11/25 01:08:38;;;;;;;8.00;4.13;;;3.30;99.90;;;;;;5072819;28;20230;-81
2022/11/25 01:11:07;;;;;;;8.90;4.10;;;3.40;99.90;;;;;;5080431;28;20202;-81
2022/11/25 01:13:34;;;;;;;10.83;4.00;;;3.30;99.90;;;;;;5070081;28;20199;-80
2022/11/25 01:16:03;;;;;;;7.20;3.50;;;3.20;99.90;;;;;;5078897;28;20287;-81
2022/11/25 01:18:31;;;;;;;9.90;3.70;;;3.20;99.90;;;;;;5071186;28;20224;-83
2022/11/25 01:21:05;;;;;;;9.50;3.73;;;3.20;99.90;;;;;;5068472;28;20211;-81
2022/11/25 01:23:32;;;;;;;12.63;4.07;;;3.20;99.90;;;;;;5066155;28;20201;-81
2022/11/25 01:26:01;;;;;;;8.70;3.50;;;3.30;99.90;;;;;;5078103;28;20202;-81
2022/11/25 01:28:28;;;;;;;7.70;3.10;;;3.30;99.90;;;;;;5076162;28;20223;-81
2022/11/25 01:31:01;;;;;;;10.47;2.97;;;3.60;99.90;;;;;;5070356;28;20203;-81
2022/11/25 01:33:28;;;;;;;5.83;3.10;;;3.30;99.90;;;;;;5075333;28;20203;-81
2022/11/25 01:35:56;;;;;;;16.17;3.53;;;3.40;99.90;;;;;;5072035;28;20230;-81
2022/11/25 01:38:23;;;;;;;10.33;3.63;;;3.60;99.90;;;;;;5068845;28;20760;-81
2022/11/25 01:40:50;;;;;;;10.73;3.43;;;4.10;99.90;;;;;;5073687;28;20591;-81
2022/11/25 01:43:17;;;;;;;7.57;3.63;;;3.70;99.90;;;;;;5079089;28;20206;-82
2022/11/25 01:45:43;;;;;;;10.27;3.73;;;3.40;99.90;;;;;;5062158;28;20210;-82
2022/11/25 01:48:18;;;;;;;8.67;4.20;;;3.30;99.90;;;;;;5075239;28;20288;-82
2022/11/25 01:50:47;;;;;;;7.67;3.47;;;3.40;99.90;;;;;;5070451;28;20225;-82
2022/11/25 01:53:16;;;;;;;8.67;3.33;;;3.40;99.90;;;;;;5075524;28;20294;-82
2022/11/25 01:55:48;;;;;;;10.70;4.00;;;3.80;99.90;;;;;;5068862;28;20218;-83
2022/11/25 01:58:18;;;;;;;9.13;3.47;;;3.70;99.90;;;;;;5081530;28;20244;-82
2022/11/25 02:00:50;;;;;;;7.87;3.17;;;3.60;99.90;;;;;;5068432;28;20206;-82
2022/11/25 02:03:21;;;;;;;7.53;3.17;;;3.60;99.90;;;;;;5072257;28;20205;-82
2022/11/25 02:05:54;;;;;;;9.50;2.90;;;3.60;99.90;;;;;;5084003;28;20201;-82
2022/11/25 02:08:24;;;;;;;8.97;3.13;;;3.70;99.90;;;;;;5075904;28;20222;-82
2022/11/25 02:10:54;;;;;;;8.13;2.80;;;3.80;99.90;;;;;;5067772;28;20195;-83
2022/11/25 02:13:21;;;;;;;7.07;2.97;;;3.70;99.90;;;;;;5073884;28;20214;-82
2022/11/25 02:15:48;;;;;;;10.57;3.07;;;3.70;99.90;;;;;;5081824;28;20229;-82
2022/11/25 02:18:15;;;;;;;15.87;3.13;;;3.90;99.90;;;;;;5066380;28;20226;-82
2022/11/25 02:20:44;;;;;;;9.60;2.73;;;4.00;99.90;;;;;;5077437;28;20205;-82
2022/11/25 02:23:21;;;;;;;11.13;2.90;;;4.10;99.90;;;;;;5075461;28;20284;-82
2022/11/25 02:25:49;;;;;;;8.63;3.07;;;4.10;99.90;;;;;;5077341;28;20202;-82
2022/11/25 02:28:19;;;;;;;8.83;3.10;;;4.00;99.90;;;;;;5075569;28;20225;-82
2022/11/25 02:30:47;;;;;;;12.97;2.60;;;3.90;99.90;;;;;;5088529;28;20213;-82
2022/11/25 02:33:14;;;;;;;8.23;2.60;;;3.90;99.90;;;;;;5071655;28;20210;-82
2022/11/25 02:35:43;;;;;;;9.13;3.27;;;4.00;99.90;;;;;;5074738;28;20225;-81
2022/11/25 02:38:15;;;;;;;6.00;2.60;;;3.80;99.90;;;;;;5079841;28;20222;-81
2022/11/25 02:40:52;;;;;;;9.90;2.83;;;3.80;99.90;;;;;;5077441;28;20209;-81
2022/11/25 02:43:19;;;;;;;11.47;2.47;;;3.70;99.90;;;;;;5072034;28;20208;-80
2022/11/25 02:45:55;;;;;;;7.43;3.20;;;3.60;99.90;;;;;;5084399;28;20229;-81
2022/11/25 02:48:22;;;;;;;7.70;2.70;;;3.70;99.90;;;;;;5077336;28;20233;-81
2022/11/25 02:50:49;;;;;;;7.00;2.67;;;4.10;99.90;;;;;;5074043;28;20275;-81
2022/11/25 02:53:16;;;;;;;8.20;2.67;;;4.30;99.90;;;;;;5087028;28;20687;-80
2022/11/25 02:55:43;;;;;;;8.87;2.77;;;4.20;99.90;;;;;;5085138;28;20218;-80
2022/11/25 02:58:11;;;;;;;11.73;2.63;;;4.20;99.90;;;;;;5097258;28;20213;-81
2022/11/25 03:00:39;;;;;;;10.63;3.37;;;4.30;99.90;;;;;;5100929;28;20662;-81
2022/11/25 03:03:06;;;;;;;9.37;2.93;;;4.10;99.90;;;;;;5083346;28;20216;-81
2022/11/25 03:05:33;;;;;;;10.43;2.60;;;4.30;99.90;;;;;;5081721;28;20200;-80
2022/11/25 03:08:00;;;;;;;9.33;2.67;;;4.10;99.90;;;;;;5063404;28;20233;-80
2022/11/25 03:10:27;;;;;;;6.73;2.70;;;4.10;99.90;;;;;;5062234;28;20217;-80
2022/11/25 03:12:54;;;;;;;10.47;2.70;;;4.10;99.90;;;;;;5060999;28;20203;-81
2022/11/25 03:15:23;;;;;;;10.17;3.13;;;4.00;99.90;;;;;;5062444;28;20693;-81
2022/11/25 03:17:50;;;;;;;8.43;2.77;;;3.90;99.90;;;;;;5061830;28;20313;-80
2022/11/25 03:20:17;;;;;;;10.70;2.37;;;4.20;99.90;;;;;;5063439;28;20203;-81
2022/11/25 03:22:44;;;;;;;7.70;2.30;;;4.10;99.90;;;;;;5083839;28;20210;-81
2022/11/25 03:25:12;;;;;;;11.27;2.87;;;4.30;99.90;;;;;;5076960;28;20213;-80
2022/11/25 03:27:40;;;;;;;6.30;3.30;;;4.20;99.90;;;;;;5063015;28;20237;-80
2022/11/25 03:30:09;;;;;;;13.00;3.07;;;4.30;99.90;;;;;;5060740;28;20210;-81
2022/11/25 03:32:37;;;;;;;9.10;2.60;;;4.10;99.90;;;;;;5061044;28;20575;-80
2022/11/25 03:35:05;;;;;;;5.63;2.67;;;4.20;99.90;;;;;;5061104;28;20598;-81
2022/11/25 03:37:32;;;;;;;10.07;2.73;;;4.40;99.90;;;;;;5061420;28;20213;-81
2022/11/25 03:39:59;;;;;;;11.23;3.40;;;4.40;99.90;;;;;;5063208;28;20571;-81
2022/11/25 03:42:25;;;;;;;10.23;2.50;;;4.30;99.90;;;;;;5065047;28;20191;-81
2022/11/25 03:44:52;;;;;;;7.47;2.53;;;4.60;99.90;;;;;;5080468;28;20213;-81
2022/11/25 03:47:19;;;;;;;10.57;2.60;;;4.60;99.90;;;;;;5066640;28;20256;-81
2022/11/25 03:49:47;;;;;;;9.67;2.53;;;4.30;99.90;;;;;;5059827;28;20199;-81
2022/11/25 03:52:14;;;;;;;12.80;3.20;;;4.20;99.90;;;;;;5060448;28;20215;-80
2022/11/25 03:54:41;;;;;;;11.63;3.10;;;4.50;99.90;;;;;;5062514;28;20266;-80
2022/11/25 03:57:08;;;;;;;11.77;2.63;;;4.50;99.90;;;;;;5061156;28;20255;-80
2022/11/25 03:59:35;;;;;;;8.13;2.80;;;4.90;99.90;;;;;;5090441;28;20217;-81
2022/11/25 04:02:02;;;;;;;13.03;3.03;;;5.00;99.90;;;;;;5085450;28;20212;-80
2022/11/25 04:04:29;;;;;;;12.00;2.77;;;5.00;99.90;;;;;;5081476;28;20206;-80
2022/11/25 04:06:57;;;;;;;10.67;3.60;;;5.10;99.90;;;;;;5069207;28;20203;-80
2022/11/25 04:09:24;;;;;;;9.83;3.03;;;4.80;99.90;;;;;;5062205;28;20229;-80
2022/11/25 04:14:36;;;;;;;7.70;2.73;;;4.60;99.90;;;;;;5062768;28;20729;-80
2022/11/25 04:17:03;;;;;;;11.87;4.07;;;4.40;99.90;;;;;;5061568;28;20249;-80
2022/11/25 04:19:29;;;;;;;8.57;2.70;;;4.40;99.90;;;;;;5063255;28;20310;-80
2022/11/25 04:21:58;;;;;;;8.40;3.30;;;4.30;99.90;;;;;;5080582;28;20201;-80
2022/11/25 04:24:25;;;;;;;6.43;2.70;;;4.50;99.90;;;;;;5074889;28;20205;-80
2022/11/25 04:26:52;;;;;;;11.40;3.13;;;4.30;99.90;;;;;;5080154;28;20205;-80
2022/11/25 04:29:19;;;;;;;12.00;3.60;;;4.40;99.90;;;;;;5065889;28;20219;-80
2022/11/25 04:31:45;;;;;;;7.60;3.00;;;4.40;99.90;;;;;;5075591;28;20213;-80
2022/11/25 04:34:12;;;;;;;11.93;3.37;;;4.40;99.90;;;;;;5071442;28;20194;-81
2022/11/25 04:36:39;;;;;;;7.87;3.10;;;4.50;99.90;;;;;;5062253;28;20723;-81
2022/11/25 04:39:07;;;;;;;12.13;3.47;;;4.50;99.90;;;;;;5060028;28;20227;-81
2022/11/25 04:41:34;;;;;;;6.00;2.93;;;4.60;99.90;;;;;;5058531;28;20214;-82
2022/11/25 04:44:01;;;;;;;7.53;2.80;;;4.50;99.90;;;;;;5060941;28;20719;-81
2022/11/25 04:46:34;;;;;;;7.73;3.10;;;4.40;99.90;;;;;;5059940;28;20244;-82
2022/11/25 04:49:00;;;;;;;8.20;2.60;;;4.40;99.90;;;;;;5058950;28;20233;-81
2022/11/25 04:51:27;;;;;;;6.77;2.90;;;4.50;99.90;;;;;;5058262;28;20582;-81
2022/11/25 04:53:54;;;;;;;9.47;2.63;;;4.30;99.90;;;;;;5060400;28;20238;-80
2022/11/25 04:56:24;;;;;;;12.60;2.87;;;4.30;99.90;;;;;;5060326;28;20222;-80
2022/11/25 05:01:36;;;;;;;7.63;2.60;;;4.10;99.90;;;;;;5060235;28;20210;-81
2022/11/25 05:04:03;;;;;;;11.43;3.50;;;4.00;99.90;;;;;;5059748;28;20203;-81
2022/11/25 05:06:30;;;;;;;8.97;2.60;;;4.00;99.90;;;;;;5059657;28;20207;-82
2022/11/25 05:08:57;;;;;;;7.07;3.03;;;3.80;99.90;;;;;;5060196;28;20222;-82
2022/11/25 05:11:25;;;;;;;5.67;2.60;;;3.90;99.90;;;;;;5059966;28;20203;-81
2022/11/25 05:13:53;;;;;;;12.20;3.50;;;3.80;99.90;;;;;;5059107;28;20293;-82
2022/11/25 05:16:20;;;;;;;7.00;3.03;;;4.10;99.90;;;;;;5059390;28;20223;-82
2022/11/25 05:18:47;;;;;;;7.37;2.50;;;4.00;99.90;;;;;;5059369;28;20276;-82
2022/11/25 05:21:14;;;;;;;9.27;3.43;;;4.00;99.90;;;;;;5059148;28;20244;-82
2022/11/25 05:23:40;;;;;;;11.47;3.30;;;4.20;99.90;;;;;;5058806;28;20234;-82
2022/11/25 05:26:07;;;;;;;12.77;3.17;;;4.20;99.90;;;;;;5058905;28;20203;-82
2022/11/25 05:28:36;;;;;;;8.53;3.23;;;4.30;99.90;;;;;;5057868;28;20245;-82
2022/11/25 05:31:02;;;;;;;6.37;2.87;;;4.20;99.90;;;;;;5058867;28;20207;-82
2022/11/25 05:33:29;;;;;;;9.33;3.40;;;4.00;99.90;;;;;;5058201;28;20729;-82
2022/11/25 05:35:58;;;;;;;8.67;3.33;;;4.30;99.90;;;;;;5058067;28;20305;-81
2022/11/25 05:38:25;;;;;;;8.57;3.10;;;4.30;99.90;;;;;;5058468;28;20226;-82
2022/11/25 05:40:53;;;;;;;11.37;3.23;;;4.30;99.90;;;;;;5057653;28;20233;-82
2022/11/25 05:43:20;;;;;;;9.53;3.27;;;4.40;99.90;;;;;;5058952;28;20268;-82
2022/11/25 05:45:48;;;;;;;14.13;3.23;;;4.50;99.90;;;;;;5058904;28;20206;-82
2022/11/25 05:48:15;;;;;;;9.80;3.00;;;4.60;99.90;;;;;;5059972;28;20234;-82
2022/11/25 05:50:42;;;;;;;9.17;2.97;;;4.50;99.90;;;;;;5058298;28;20214;-82
2022/11/25 05:53:10;;;;;;;13.13;2.90;;;4.60;99.90;;;;;;5057380;28;20210;-82
2022/11/25 05:55:37;;;;;;;8.50;3.20;;;4.20;99.90;;;;;;5057367;28;20206;-82
2022/11/25 05:58:05;;;;;;;10.30;3.20;;;4.40;99.90;;;;;;5057868;28;20288;-82
2022/11/25 06:00:32;;;;;;;12.03;3.00;;;4.70;99.90;;;;;;5059639;28;20204;-82
2022/11/25 06:03:00;;;;;;;8.13;3.23;;;4.70;99.90;;;;;;5059261;28;20260;-82
2022/11/25 06:05:27;;;;;;;9.80;3.40;;;4.30;99.90;;;;;;5058769;28;20261;-82
2022/11/25 06:07:54;;;;;;;9.47;3.20;;;4.20;99.90;;;;;;5058615;28;20243;-82
2022/11/25 06:10:21;;;;;;;10.20;2.93;;;4.10;99.90;;;;;;5058831;28;20611;-82
2022/11/25 06:12:48;;;;;;;6.07;3.10;;;4.30;99.90;;;;;;5058691;28;20207;-82
2022/11/25 06:15:15;;;;;;;10.97;3.53;;;4.30;99.90;;;;;;5058873;28;20571;-82
2022/11/25 06:17:42;;;;;;;5.27;3.10;;;4.20;99.90;;;;;;5058572;28;20255;-82
2022/11/25 06:20:11;;;;;;;9.47;3.10;;;4.30;99.90;;;;;;5058063;28;20245;-83
2022/11/25 06:22:38;;;;;;;13.40;3.43;;;4.20;99.90;;;;;;5060395;28;20213;-83
2022/11/25 06:25:06;;;;;;;8.47;3.30;;;4.80;99.90;;;;;;5060882;28;20211;-83
2022/11/25 06:27:34;;;;;;;11.10;3.23;;;4.50;99.90;;;;;;5073256;28;20202;-82
2022/11/25 06:30:01;;;;;;;7.83;2.93;;;4.50;99.90;;;;;;5094940;28;20216;-83
2022/11/25 06:32:27;;;;;;;8.50;3.20;;;4.60;99.90;;;;;;5056986;28;20598;-82
2022/11/25 06:34:54;;;;;;;11.23;3.83;;;4.70;99.90;;;;;;5093135;28;20208;-82
2022/11/25 06:37:22;;;;;;;12.80;4.90;;;5.00;99.90;;;;;;5099159;28;20268;-82
2022/11/25 06:39:49;;;;;;;12.60;4.50;;;5.40;99.90;;;;;;5097480;28;20221;-82
2022/11/25 06:42:16;;;;;;;12.77;3.40;;;5.60;99.90;;;;;;5080369;28;20210;-82
2022/11/25 06:44:43;;;;;;;11.13;3.47;;;5.40;99.90;;;;;;5079674;28;20210;-81
2022/11/25 06:47:10;;;;;;;8.53;3.60;;;5.40;99.90;;;;;;5071814;28;20704;-83
2022/11/25 06:49:36;;;;;;;9.50;3.10;;;5.70;99.90;;;;;;5084012;28;20261;-83
2022/11/25 06:52:03;;;;;;;9.97;3.10;;;6.10;99.90;;;;;;5079438;28;20221;-82
2022/11/25 06:54:32;;;;;;;8.87;3.03;;;6.20;99.90;;;;;;5077538;28;20206;-84
2022/11/25 06:56:59;;;;;;;8.63;3.43;;;6.40;99.90;;;;;;5066686;28;20250;-83
2022/11/25 06:59:26;;;;;;;7.30;2.90;;;6.40;99.90;;;;;;5087781;28;20245;-84
2022/11/25 07:01:53;;;;;;;9.57;3.37;;;6.50;99.90;;;;;;5075185;28;20230;-83
2022/11/25 07:04:20;;;;;;;14.63;3.53;;;6.60;99.90;;;;;;5074326;28;20462;-82
2022/11/25 07:06:49;;;;;;;10.07;3.50;;;6.70;99.90;;;;;;5076160;28;20257;-83
2022/11/25 07:09:18;;;;;;;12.93;3.07;;;6.60;99.90;;;;;;5080182;28;20936;-82
2022/11/25 07:11:46;;;;;;;10.17;3.27;;;6.60;99.90;;;;;;5082539;28;20209;-85
2022/11/25 07:14:14;;;;;;;15.80;4.57;;;6.50;99.90;;;;;;5071346;28;20207;-83
2022/11/25 07:16:43;;;;;;;9.70;2.93;;;6.60;99.90;;;;;;5098002;28;20758;-83
2022/11/25 07:19:11;;;;;;;10.67;3.27;;;6.60;99.90;;;;;;5083872;28;20215;-82
2022/11/25 07:21:39;;;;;;;10.83;2.73;;;6.50;99.90;;;;;;5082213;28;20206;-83
2022/11/25 07:24:07;;;;;;;11.33;2.90;;;6.50;99.90;;;;;;5080438;28;20206;-82
2022/11/25 07:26:36;;;;;;;10.13;2.60;;;6.50;99.90;;;;;;5093172;28;20605;-82
2022/11/25 07:29:06;;;;;;;7.77;2.60;;;6.50;99.90;;;;;;5092361;28;20308;-84
2022/11/25 07:31:35;;;;;;;7.90;2.50;;;6.50;99.90;;;;;;5084750;28;20659;-83
2022/11/25 07:34:04;;;;;;;7.53;2.80;;;6.50;99.90;;;;;;5083719;28;20234;-84
2022/11/25 07:36:32;;;;;;;10.70;3.23;;;6.60;99.90;;;;;;5083846;28;20229;-82
2022/11/25 07:39:00;;;;;;;9.60;3.13;;;6.60;99.90;;;;;;5083669;28;20223;-82
2022/11/25 07:41:28;;;;;;;7.97;2.40;;;6.70;99.90;;;;;;5090522;28;20630;-82
2022/11/25 07:43:57;;;;;;;10.17;2.77;;;6.80;99.90;;;;;;5082375;28;20229;-84
2022/11/25 07:46:27;;;;;;;12.97;3.13;;;6.90;99.90;;;;;;5086794;28;20197;-82
2022/11/25 07:48:55;;;;;;;8.97;3.00;;;6.90;99.90;;;;;;5089741;28;20238;-82
2022/11/25 07:51:24;;;;;;;11.27;2.77;;;7.00;99.90;;;;;;5079451;28;20209;-83
2022/11/25 07:53:53;;;;;;;11.17;2.87;;;7.00;99.90;;;;;;5081105;28;20198;-82
2022/11/25 07:56:20;;;;;;;11.23;3.07;;;7.00;99.90;;;;;;5085859;28;20238;-83
2022/11/25 07:58:48;;;;;;;9.27;3.13;;;7.10;99.90;;;;;;5071110;28;20227;-83
2022/11/25 08:01:17;;;;;;;6.47;2.53;;;7.10;99.90;;;;;;5076700;28;20203;-83
2022/11/25 08:03:47;;;;;;;9.13;2.83;;;7.10;99.90;;;;;;5080579;28;20203;-82
2022/11/25 08:06:15;;;;;;;9.27;2.97;;;7.20;99.90;;;;;;5072811;28;20203;-82
2022/11/25 08:08:43;;;;;;;9.93;2.80;;;7.30;99.90;;;;;;5089123;28;20243;-83
2022/11/25 08:11:12;;;;;;;13.63;2.80;;;7.40;99.90;;;;;;5077777;28;20262;-82
2022/11/25 08:13:39;;;;;;;9.33;3.27;;;7.40;99.90;;;;;;5083696;28;20205;-83
2022/11/25 08:16:07;;;;;;;14.13;3.53;;;7.40;99.90;;;;;;5072978;28;20300;-82
2022/11/25 08:18:34;;;;;;;10.77;3.73;;;7.40;99.90;;;;;;5084419;28;20225;-82
2022/11/25 08:21:04;;;;;;;9.83;3.17;;;7.40;99.90;;;;;;5077386;28;20203;-82
2022/11/25 08:23:31;;;;;;;8.63;2.97;;;7.50;99.90;;;;;;5066840;28;20224;-82
2022/11/25 08:26:02;;;;;;;11.30;4.13;;;7.50;99.90;;;;;;5067075;28;20654;-81
2022/11/25 08:28:29;;;;;;;12.63;3.33;;;7.40;99.90;;;;;;5071633;28;20759;-83
2022/11/25 08:31:02;;;;;;;9.07;2.70;;;7.40;99.90;;;;;;5077367;28;20199;-81
2022/11/25 08:33:28;;;;;;;12.60;3.23;;;7.50;99.90;;;;;;5068250;28;20202;-82
2022/11/25 08:35:56;;;;;;;9.63;3.50;;;7.40;99.90;;;;;;5071599;28;20203;-82
2022/11/25 08:38:25;;;;;;;10.07;3.57;;;7.40;99.90;;;;;;5089549;28;20221;-82
2022/11/25 08:40:52;;;;;;;8.63;3.20;;;7.50;99.90;;;;;;5093449;28;20220;-81
2022/11/25 08:43:20;;;;;;;15.27;3.33;;;7.50;99.90;;;;;;5091559;28;20235;-82
2022/11/25 08:45:48;;;;;;;11.27;3.07;;;7.50;99.90;;;;;;5079555;28;20210;-83
2022/11/25 08:48:15;;;;;;;11.13;3.00;;;7.60;99.90;;;;;;5091327;28;20256;-82
2022/11/25 08:50:46;;;;;;;9.73;3.30;;;7.70;99.90;;;;;;5071200;28;20607;-83
2022/11/25 08:53:14;;;;;;;8.77;3.20;;;7.60;99.90;;;;;;5079974;28;20237;-84
2022/11/25 08:55:42;;;;;;;11.00;3.07;;;7.70;99.90;;;;;;5064607;28;20211;-83
2022/11/25 08:58:11;;;;;;;11.27;3.40;;;7.60;99.90;;;;;;5070170;28;20245;-82
2022/11/25 09:00:39;;;;;;;10.10;3.23;;;7.70;99.90;;;;;;5076823;28;20227;-84
2022/11/25 09:03:06;;;;;;;12.27;3.60;;;7.70;99.90;;;;;;5077945;28;20206;-82
2022/11/25 09:05:35;;;;;;;10.93;3.00;;;7.70;99.90;;;;;;5076232;28;20255;-84
2022/11/25 09:08:02;;;;;;;11.33;3.83;;;7.70;99.90;;;;;;5068988;28;20223;-83
2022/11/25 09:10:29;;;;;;;8.57;3.00;;;7.90;99.90;;;;;;5072523;28;20201;-84
2022/11/25 09:12:58;;;;;;;7.33;2.63;;;7.80;99.90;;;;;;5070967;28;20698;-83
2022/11/25 09:15:26;;;;;;;7.90;2.83;;;7.80;99.90;;;;;;5081084;28;20616;-83
2022/11/25 09:17:59;;;;;;;9.47;3.40;;;7.80;99.90;;;;;;5078188;28;20234;-82
2022/11/25 09:20:26;;;;;;;8.53;3.00;;;7.90;99.90;;;;;;5078599;28;20206;-83
2022/11/25 09:22:53;;;;;;;9.33;3.10;;;7.80;99.90;;;;;;5070105;28;20651;-83
2022/11/25 09:25:20;;;;;;;11.17;3.60;;;7.90;99.90;;;;;;5062512;28;20210;-83
2022/11/25 09:27:47;;;;;;;10.83;2.80;;;7.80;99.90;;;;;;5086208;28;20593;-82
2022/11/25 09:30:16;;;;;;;9.13;2.80;;;7.80;99.90;;;;;;5082176;28;20225;-83
2022/11/25 09:32:43;;;;;;;10.60;2.93;;;7.80;99.90;;;;;;5089389;28;20213;-82
2022/11/25 09:35:10;;;;;;;26.83;3.27;;;7.80;99.90;;;;;;5086728;28;20214;-82
2022/11/25 09:37:37;;;;;;;10.07;2.93;;;7.70;99.90;;;;;;5076853;28;20661;-82
2022/11/25 09:40:07;;;;;;;9.17;3.03;;;7.80;99.90;;;;;;5076958;28;20652;-83
2022/11/25 09:48:49;;;;;;;12.30;2.50;;;7.80;99.90;;;;;;5082796;28;20233;-82
2022/11/25 09:51:20;;;;;;;11.00;2.90;;;7.80;99.90;;;;;;5079990;28;20198;-81
2022/11/25 09:53:52;;;;;;;11.33;3.10;;;7.90;99.90;;;;;;5076343;28;20290;-81
2022/11/25 09:56:28;;;;;;;12.13;3.37;;;7.90;99.90;;;;;;5085366;28;20202;-81
2022/11/25 09:59:02;;;;;;;14.00;3.20;;;7.90;99.90;;;;;;5078537;28;20265;-81
2022/11/25 10:01:35;;;;;;;8.00;2.80;;;8.00;99.90;;;;;;5070541;28;20317;-81
2022/11/25 10:04:09;;;;;;;7.57;2.73;;;8.00;99.90;;;;;;5065351;28;20244;-82
2022/11/25 10:06:40;;;;;;;12.60;3.40;;;8.00;99.90;;;;;;5082131;28;20233;-83
2022/11/25 10:09:12;;;;;;;5.93;2.43;;;8.20;99.90;;;;;;5085883;28;20246;-81
2022/11/25 10:11:48;;;;;;;8.53;3.23;;;8.20;99.90;;;;;;5091743;28;20205;-81
2022/11/25 10:14:24;;;;;;;8.47;2.63;;;8.20;99.90;;;;;;5083506;28;20210;-82
2022/11/25 10:17:01;;;;;;;9.90;3.23;;;8.30;99.90;;;;;;5079605;28;20297;-80
2022/11/25 10:19:39;;;;;;;13.10;3.20;;;8.30;99.90;;;;;;5074001;28;20216;-81
2022/11/25 10:22:20;;;;;;;11.43;3.20;;;8.30;99.90;;;;;;5080000;28;20264;-81
2022/11/25 10:24:47;;;;;;;9.30;3.67;;;8.40;99.90;;;;;;5069025;28;20616;-82
2022/11/25 10:27:21;;;;;;;7.10;2.90;;;8.40;99.90;;;;;;5083924;28;20225;-82
2022/11/25 10:29:56;;;;;;;11.27;3.10;;;8.40;99.90;;;;;;5084138;28;20205;-82
2022/11/25 10:32:27;;;;;;;13.37;3.10;;;8.50;99.90;;;;;;5079787;28;20353;-83
2022/11/25 10:34:59;;;;;;;9.87;2.97;;;8.50;99.90;;;;;;5079671;28;20236;-81
2022/11/25 10:37:29;;;;;;;11.90;2.93;;;8.50;99.90;;;;;;5077526;28;20237;-82
2022/11/25 10:39:56;;;;;;;8.17;3.20;;;8.50;99.90;;;;;;5077422;28;20206;-84
2022/11/25 10:42:24;;;;;;;9.60;2.87;;;8.50;99.90;;;;;;5078339;28;20206;-84
2022/11/25 10:44:53;;;;;;;11.03;2.87;;;8.50;99.90;;;;;;5086632;28;20873;-83
2022/11/25 10:47:34;;;;;;;13.03;3.43;;;8.40;99.90;;;;;;5090209;28;20213;-81
2022/11/25 10:50:17;;;;;;;16.87;4.13;;;8.40;99.90;;;;;;5074677;28;20234;-82
2022/11/25 10:52:51;;;;;;;10.73;3.60;;;8.40;99.90;;;;;;5085815;28;20202;-81
2022/11/25 10:55:22;;;;;;;11.20;3.47;;;8.50;99.90;;;;;;5094004;28;20640;-81
2022/11/25 10:57:49;;;;;;;7.20;3.13;;;8.50;99.90;;;;;;5090411;28;20638;-80
2022/11/25 11:00:28;;;;;;;9.90;3.40;;;8.60;99.90;;;;;;5071172;28;20202;-80
2022/11/25 11:02:58;;;;;;;11.07;3.60;;;8.50;99.90;;;;;;5082205;28;20219;-80
2022/11/25 11:05:28;;;;;;;10.83;3.07;;;8.60;99.90;;;;;;5081739;28;20236;-81
2022/11/25 11:08:15;;;;;;;10.73;3.10;;;8.60;99.90;;;;;;5089632;28;20222;-81
2022/11/25 11:10:42;;;;;;;10.80;3.30;;;8.50;99.90;;;;;;5084506;28;20206;-80
2022/11/25 11:13:22;;;;;;;8.33;2.90;;;8.50;99.90;;;;;;5082914;28;20695;-80
2022/11/25 11:15:50;;;;;;;9.47;3.80;;;8.50;99.90;;;;;;5072372;28;20232;-81
2022/11/25 11:18:25;;;;;;;10.50;3.37;;;8.50;99.90;;;;;;5066485;28;20245;-79
2022/11/25 11:20:54;;;;;;;9.53;3.07;;;8.50;99.90;;;;;;5078338;28;20202;-81
2022/11/25 11:23:21;;;;;;;11.57;3.70;;;8.50;99.90;;;;;;5078616;28;20569;-82
2022/11/25 11:25:57;;;;;;;9.60;3.43;;;8.50;99.90;;;;;;5083387;28;20237;-82
2022/11/25 11:28:31;;;;;;;11.13;3.47;;;8.50;99.90;;;;;;5073160;28;20249;-83
2022/11/25 11:31:02;;;;;;;11.73;3.50;;;8.60;99.90;;;;;;5082255;28;20201;-82
2022/11/25 11:33:35;;;;;;;9.33;3.20;;;8.40;99.90;;;;;;5079825;28;20285;-83
2022/11/25 11:36:16;;;;;;;12.00;3.60;;;8.50;99.90;;;;;;5077211;28;20989;-83
2022/11/25 11:38:52;;;;;;;7.83;3.27;;;8.40;99.90;;;;;;5077166;28;20239;-82
2022/11/25 11:41:30;;;;;;;12.43;3.33;;;8.40;99.90;;;;;;5084386;28;20218;-82
2022/11/25 11:44:16;;;;;;;13.67;3.87;;;8.40;99.90;;;;;;5069406;28;20234;-84
2022/11/25 11:46:55;;;;;;;7.80;3.57;;;8.40;99.90;;;;;;5064937;28;20237;-82
2022/11/25 11:49:42;;;;;;;13.90;3.73;;;8.40;99.90;;;;;;5091884;28;20260;-83
2022/11/25 11:52:15;;;;;;;6.90;3.43;;;8.40;99.90;;;;;;5080527;28;20258;-82
2022/11/25 11:54:45;;;;;;;13.13;4.57;;;8.40;99.90;;;;;;5081393;28;20213;-83
2022/11/25 11:57:25;;;;;;;13.13;3.60;;;8.40;99.90;;;;;;5072890;28;20229;-82
2022/11/25 11:59:54;;;;;;;11.47;3.93;;;8.40;99.90;;;;;;5081205;28;20246;-84
2022/11/25 12:02:59;;;;;;;9.03;3.30;;;8.40;99.90;;;;;;5076197;28;20195;-82
2022/11/25 12:05:30;;;;;;;7.03;3.60;;;8.40;99.90;;;;;;5072814;28;20749;-83
2022/11/25 12:08:05;;;;;;;8.77;3.47;;;8.40;99.90;;;;;;5078094;28;20226;-83
2022/11/25 12:10:37;;;;;;;10.83;3.73;;;8.40;99.90;;;;;;5072856;28;20214;-83
2022/11/25 12:13:13;;;;;;;9.87;4.27;;;8.40;99.90;;;;;;5057895;28;20192;-84
2022/11/25 12:15:48;;;;;;;10.33;3.97;;;8.40;99.90;;;;;;5063067;28;20206;-84
2022/11/25 12:18:32;;;;;;;10.40;3.70;;;8.40;99.90;;;;;;5077715;28;20233;-84
2022/11/25 12:21:02;;;;;;;10.23;4.27;;;8.40;99.90;;;;;;5078850;28;20308;-84
2022/11/25 12:23:39;;;;;;;9.80;3.97;;;8.40;99.90;;;;;;5077480;28;20210;-83
2022/11/25 12:26:12;;;;;;;11.53;4.47;;;8.50;99.90;;;;;;5064032;28;20214;-84
2022/11/25 12:28:45;;;;;;;9.93;4.37;;;8.50;99.90;;;;;;5076297;28;20268;-82
2022/11/25 12:31:17;;;;;;;9.67;4.57;;;8.50;99.90;;;;;;5077330;28;20198;-84
2022/11/25 12:33:57;;;;;;;8.23;3.93;;;8.60;99.90;;;;;;5078043;28;20214;-84
2022/11/25 12:36:33;;;;;;;10.13;4.10;;;8.70;99.90;;;;;;5078085;28;20214;-84
2022/11/25 12:39:03;;;;;;;11.40;4.20;;;8.70;99.90;;;;;;5076979;28;20274;-84
2022/11/25 12:41:39;;;;;;;11.97;4.40;;;8.70;99.90;;;;;;5059828;28;20297;-84
2022/11/25 12:44:12;;;;;;;7.97;4.57;;;8.70;99.90;;;;;;5056700;28;20214;-84
2022/11/25 12:46:44;;;;;;;10.27;4.07;;;8.80;99.90;;;;;;5059012;28;20210;-83
2022/11/25 12:49:17;;;;;;;10.57;4.20;;;8.90;99.90;;;;;;5076860;28;20226;-84
2022/11/25 12:52:23;;;;;;;8.93;4.00;;;8.80;99.90;;;;;;5076916;28;20684;-83
2022/11/25 12:55:12;;;;;;;10.10;3.93;;;9.60;99.90;;;;;;5044657;28;20210;-82
2022/11/25 12:58:15;;;;;;;12.97;4.37;;;9.40;99.90;;;;;;5076852;28;20202;-82
2022/11/25 13:01:19;;;;;;;11.43;4.40;;;9.40;99.90;;;;;;5067783;28;20221;-82
2022/11/25 13:04:16;;;;;;;6.40;3.60;;;9.80;99.90;;;;;;5058785;28;20205;-81
2022/11/25 13:07:17;;;;;;;8.80;4.30;;;9.60;99.90;;;;;;5072167;28;20202;-82
2022/11/25 13:10:17;;;;;;;9.87;4.03;;;9.50;99.90;;;;;;5074198;28;20218;-82
2022/11/25 13:12:57;;;;;;;9.27;3.90;;;9.30;99.90;;;;;;5064342;28;20215;-82
2022/11/25 13:15:27;;;;;;;9.77;4.10;;;9.30;99.90;;;;;;5054921;28;20215;-84
2022/11/25 13:17:58;;;;;;;11.27;3.80;;;9.30;99.90;;;;;;5064524;28;20226;-83
2022/11/25 13:20:53;;;;;;;10.10;4.17;;;9.30;99.90;;;;;;5074701;28;20631;-81
2022/11/25 13:23:38;;;;;;;11.83;4.20;;;9.20;99.90;;;;;;5059843;28;20219;-82
2022/11/25 13:26:36;;;;;;;11.20;4.20;;;9.20;99.90;;;;;;5053776;28;20275;-81